sensor_id;sensor_type;location;lat;lon;timestamp;pressure;altitude;pressure_sealevel;temperature;humidity
1776;BME280;885;42.626;23.200;2022-11-14T00:00:10;144951.44;;;5.37;100.00
1776;BME280;885;42.626;23.200;2022-11-14T00:02:38;143536.03;;;5.57;100.00
1776;BME280;885;42.626;23.200;2022-11-14T00:05:06;142792.47;;;5.52;100.00
1776;BME280;885;42.626;23.200;2022-11-14T00:07:33;143519.59;;;5.50;100.00
1776;BME280;885;42.626;23.200;2022-11-14T00:10:00;142400.94;;;5.41;100.00
1776;BME280;885;42.626;23.200;2022-11-14T00:12:28;144223.09;;;5.38;100.00
1776;BME280;885;42.626;23.200;2022-11-14T00:14:55;144911.03;;;5.20;100.00
1776;BME280;885;42.626;23.200;2022-11-14T00:17:22;147843.81;;;5.22;100.00
1776;BME280;885;42.626;23.200;2022-11-14T00:19:49;147521.31;;;5.40;100.00
1776;BME280;885;42.626;23.200;2022-11-14T00:22:15;146075.84;;;5.48;100.00
1776;BME280;885;42.626;23.200;2022-11-14T00:24:42;144976.41;;;5.47;100.00
1776;BME280;885;42.626;23.200;2022-11-14T00:27:09;144237.31;;;5.44;100.00
1776;BME280;885;42.626;23.200;2022-11-14T00:29:38;143879.63;;;5.48;100.00
1776;BME280;885;42.626;23.200;2022-11-14T00:32:05;142793.63;;;5.53;100.00
1776;BME280;885;42.626;23.200;2022-11-14T00:34:32;141688.03;;;5.49;100.00
1776;BME280;885;42.626;23.200;2022-11-14T00:36:59;142718.78;;;5.21;100.00
1776;BME280;885;42.626;23.200;2022-11-14T00:39:26;143068.03;;;5.14;100.00
1776;BME280;885;42.626;23.200;2022-11-14T00:41:52;144187.66;;;5.23;100.00
1776;BME280;885;42.626;23.200;2022-11-14T00:44:19;144915.78;;;5.22;100.00
1776;BME280;885;42.626;23.200;2022-11-14T00:46:47;144160.47;;;5.12;100.00
1776;BME280;885;42.626;23.200;2022-11-14T00:49:14;144927.69;;;5.27;100.00
1776;BME280;885;42.626;23.200;2022-11-14T00:51:41;144913.41;;;5.21;100.00
1776;BME280;885;42.626;23.200;2022-11-14T00:54:08;145316.22;;;5.36;100.00
1776;BME280;885;42.626;23.200;2022-11-14T00:56:35;146353.16;;;5.11;100.00
1776;BME280;885;42.626;23.200;2022-11-14T00:59:02;147111.63;;;5.22;100.00
1776;BME280;885;42.626;23.200;2022-11-14T01:01:29;147149.06;;;5.37;100.00
1776;BME280;885;42.626;23.200;2022-11-14T01:03:57;146419.16;;;5.38;100.00
1776;BME280;885;42.626;23.200;2022-11-14T01:06:24;145697.78;;;5.43;100.00
1776;BME280;885;42.626;23.200;2022-11-14T01:08:51;144965.69;;;5.43;100.00
1776;BME280;885;42.626;23.200;2022-11-14T01:11:20;144964.53;;;5.42;100.00
1776;BME280;885;42.626;23.200;2022-11-14T01:13:47;146336.31;;;5.04;100.00
1776;BME280;885;42.626;23.200;2022-11-14T01:16:14;147805.00;;;5.06;100.00
1776;BME280;885;42.626;23.200;2022-11-14T01:18:41;149258.38;;;5.01;100.00
1776;BME280;885;42.626;23.200;2022-11-14T01:21:11;149662.63;;;5.17;100.00
1776;BME280;885;42.626;23.200;2022-11-14T01:23:39;149291.47;;;5.15;100.00
1776;BME280;885;42.626;23.200;2022-11-14T01:26:08;148955.84;;;5.27;100.00
1776;BME280;885;42.626;23.200;2022-11-14T01:28:35;151469.47;;;5.07;100.00
1776;BME280;885;42.626;23.200;2022-11-14T01:31:10;157322.47;;;5.02;100.00
1776;BME280;885;42.626;23.200;2022-11-14T01:33:37;157737.34;;;5.20;100.00
1776;BME280;885;42.626;23.200;2022-11-14T01:36:05;157028.00;;;5.30;100.00
1776;BME280;885;42.626;23.200;2022-11-14T01:38:33;155927.16;;;5.30;100.00
1776;BME280;885;42.626;23.200;2022-11-14T01:41:01;156281.19;;;5.25;100.00
1776;BME280;885;42.626;23.200;2022-11-14T01:43:30;156661.03;;;5.30;100.00
1776;BME280;885;42.626;23.200;2022-11-14T01:46:00;155562.81;;;5.31;100.00
1776;BME280;885;42.626;23.200;2022-11-14T01:48:32;154827.84;;;5.30;100.00
1776;BME280;885;42.626;23.200;2022-11-14T01:51:04;154806.22;;;5.22;100.00
1776;BME280;885;42.626;23.200;2022-11-14T01:53:37;155921.97;;;5.28;100.00
1776;BME280;885;42.626;23.200;2022-11-14T01:56:06;155942.53;;;5.36;100.00
1776;BME280;885;42.626;23.200;2022-11-14T01:58:36;156309.50;;;5.36;100.00
1776;BME280;885;42.626;23.200;2022-11-14T02:01:04;156315.88;;;5.38;100.00
1776;BME280;885;42.626;23.200;2022-11-14T02:03:32;157038.31;;;5.34;100.00
1776;BME280;885;42.626;23.200;2022-11-14T02:06:02;156649.41;;;5.25;100.00
1776;BME280;885;42.626;23.200;2022-11-14T02:08:29;157028.00;;;5.30;100.00
1776;BME280;885;42.626;23.200;2022-11-14T02:10:57;157393.69;;;5.29;100.00
1776;BME280;885;42.626;23.200;2022-11-14T02:13:24;157680.28;;;4.98;100.00
1776;BME280;885;42.626;23.200;2022-11-14T02:15:51;159526.81;;;5.03;100.00
1776;BME280;885;42.626;23.200;2022-11-14T02:18:18;158809.72;;;5.09;100.00
1776;BME280;885;42.626;23.200;2022-11-14T02:20:46;158369.72;;;4.81;100.00
1776;BME280;885;42.626;23.200;2022-11-14T02:23:13;161944.72;;;4.45;100.00
1776;BME280;885;42.626;23.200;2022-11-14T02:25:42;165311.00;;;4.68;100.00
1776;BME280;885;42.626;23.200;2022-11-14T02:28:09;165652.38;;;4.59;100.00
1776;BME280;885;42.626;23.200;2022-11-14T02:30:36;165360.06;;;4.87;100.00
1776;BME280;885;42.626;23.200;2022-11-14T02:33:03;164954.53;;;4.72;100.00
1776;BME280;885;42.626;23.200;2022-11-14T02:35:29;165308.25;;;4.67;100.00
1776;BME280;885;42.626;23.200;2022-11-14T02:37:58;165683.81;;;4.70;100.00
1776;BME280;885;42.626;23.200;2022-11-14T02:40:24;164979.03;;;4.81;100.00
1776;BME280;885;42.626;23.200;2022-11-14T02:42:51;164633.34;;;4.90;100.00
1776;BME280;885;42.626;23.200;2022-11-14T02:45:20;164264.59;;;4.89;100.00
1776;BME280;885;42.626;23.200;2022-11-14T02:47:47;164263.22;;;4.89;100.00
1776;BME280;885;42.626;23.200;2022-11-14T02:50:15;164261.84;;;4.88;100.00
1776;BME280;885;42.626;23.200;2022-11-14T02:52:41;164255.13;;;4.86;100.00
1776;BME280;885;42.626;23.200;2022-11-14T02:55:10;164257.81;;;4.87;100.00
1776;BME280;885;42.626;23.200;2022-11-14T02:57:37;164261.84;;;4.88;100.00
1776;BME280;885;42.626;23.200;2022-11-14T03:00:05;163891.81;;;4.87;100.00
1776;BME280;885;42.626;23.200;2022-11-14T03:02:31;164264.59;;;4.89;100.00
1776;BME280;885;42.626;23.200;2022-11-14T03:04:58;164588.56;;;4.73;100.00
1776;BME280;885;42.626;23.200;2022-11-14T03:07:25;165317.81;;;4.71;100.00
1776;BME280;885;42.626;23.200;2022-11-14T03:09:52;165313.69;;;4.69;100.00
1776;BME280;885;42.626;23.200;2022-11-14T03:12:20;165709.75;;;4.80;100.00
1776;BME280;885;42.626;23.200;2022-11-14T03:14:47;165716.59;;;4.82;100.00
1776;BME280;885;42.626;23.200;2022-11-14T03:17:14;166075.91;;;4.79;100.00
1776;BME280;885;42.626;23.200;2022-11-14T03:19:40;166093.66;;;4.86;100.00
1776;BME280;885;42.626;23.200;2022-11-14T03:22:07;166106.00;;;4.91;100.00
1776;BME280;885;42.626;23.200;2022-11-14T03:24:35;165752.16;;;4.96;100.00
1776;BME280;885;42.626;23.200;2022-11-14T03:27:02;165380.53;;;4.94;100.00
1776;BME280;885;42.626;23.200;2022-11-14T03:29:30;165368.25;;;4.90;100.00
1776;BME280;885;42.626;23.200;2022-11-14T03:31:56;164999.41;;;4.89;100.00
1776;BME280;885;42.626;23.200;2022-11-14T03:34:23;164642.84;;;4.93;100.00
1776;BME280;885;42.626;23.200;2022-11-14T03:36:50;164627.94;;;4.88;100.00
1776;BME280;885;42.626;23.200;2022-11-14T03:39:17;165365.50;;;4.89;100.00
1776;BME280;885;42.626;23.200;2022-11-14T03:41:44;165360.06;;;4.87;100.00
1776;BME280;885;42.626;23.200;2022-11-14T03:44:11;165369.63;;;4.90;100.00
1776;BME280;885;42.626;23.200;2022-11-14T03:46:39;165370.97;;;4.91;100.00
1776;BME280;885;42.626;23.200;2022-11-14T03:49:06;165369.63;;;4.90;100.00
1776;BME280;885;42.626;23.200;2022-11-14T03:51:33;165008.94;;;4.93;100.00
1776;BME280;885;42.626;23.200;2022-11-14T03:54:00;164636.03;;;4.91;100.00
1776;BME280;885;42.626;23.200;2022-11-14T03:56:28;164252.38;;;4.84;100.00
1776;BME280;885;42.626;23.200;2022-11-14T03:58:54;164260.53;;;4.88;100.00
1776;BME280;885;42.626;23.200;2022-11-14T04:01:22;163525.84;;;4.88;100.00
1776;BME280;885;42.626;23.200;2022-11-14T04:03:50;163485.41;;;4.72;100.00
1776;BME280;885;42.626;23.200;2022-11-14T04:06:17;163871.56;;;4.79;100.00
1776;BME280;885;42.626;23.200;2022-11-14T04:08:43;164253.75;;;4.85;100.00
1776;BME280;885;42.626;23.200;2022-11-14T04:11:10;164245.59;;;4.82;100.00
1776;BME280;885;42.626;23.200;2022-11-14T04:13:37;164251.03;;;4.84;100.00
1776;BME280;885;42.626;23.200;2022-11-14T04:16:04;163879.66;;;4.82;100.00
1776;BME280;885;42.626;23.200;2022-11-14T04:18:32;164248.34;;;4.83;100.00
1776;BME280;885;42.626;23.200;2022-11-14T04:21:00;164267.31;;;4.90;100.00
1776;BME280;885;42.626;23.200;2022-11-14T04:23:27;164257.81;;;4.87;100.00
1776;BME280;885;42.626;23.200;2022-11-14T04:25:55;163914.78;;;4.96;100.00
1776;BME280;885;42.626;23.200;2022-11-14T04:28:22;163547.41;;;4.96;100.00
1776;BME280;885;42.626;23.200;2022-11-14T04:30:48;163185.44;;;4.98;100.00
1776;BME280;885;42.626;23.200;2022-11-14T04:33:15;163186.81;;;4.98;100.00
1776;BME280;885;42.626;23.200;2022-11-14T04:35:42;162812.75;;;4.96;100.00
1776;BME280;885;42.626;23.200;2022-11-14T04:38:10;162812.75;;;4.96;100.00
1776;BME280;885;42.626;23.200;2022-11-14T04:40:37;163174.69;;;4.94;100.00
1776;BME280;885;42.626;23.200;2022-11-14T04:43:04;163154.50;;;4.86;100.00
1776;BME280;885;42.626;23.200;2022-11-14T04:45:31;163529.88;;;4.89;100.00
1776;BME280;885;42.626;23.200;2022-11-14T04:47:57;163837.81;;;4.67;100.00
1776;BME280;885;42.626;23.200;2022-11-14T04:50:24;164588.56;;;4.73;100.00
1776;BME280;885;42.626;23.200;2022-11-14T04:52:51;165623.66;;;4.48;100.00
1776;BME280;885;42.626;23.200;2022-11-14T04:55:20;166369.28;;;4.52;100.00
1776;BME280;885;42.626;23.200;2022-11-14T04:57:47;166403.59;;;4.65;100.00
1776;BME280;885;42.626;23.200;2022-11-14T05:00:14;166410.41;;;4.67;100.00
1776;BME280;885;42.626;23.200;2022-11-14T05:02:41;166388.63;;;4.58;100.00
1776;BME280;885;42.626;23.200;2022-11-14T05:05:08;166435.16;;;4.76;100.00
1776;BME280;885;42.626;23.200;2022-11-14T05:07:35;166431.03;;;4.75;100.00
1776;BME280;885;42.626;23.200;2022-11-14T05:10:02;166067.66;;;4.76;100.00
1776;BME280;885;42.626;23.200;2022-11-14T05:12:30;166037.50;;;4.65;100.00
1776;BME280;885;42.626;23.200;2022-11-14T05:14:57;166407.69;;;4.66;100.00
1776;BME280;885;42.626;23.200;2022-11-14T05:17:24;166402.22;;;4.64;100.00
1776;BME280;885;42.626;23.200;2022-11-14T05:19:51;166425.56;;;4.73;100.00
1776;BME280;885;42.626;23.200;2022-11-14T05:22:18;166462.59;;;4.87;100.00
1776;BME280;885;42.626;23.200;2022-11-14T05:24:44;166111.47;;;4.93;100.00
1776;BME280;885;42.626;23.200;2022-11-14T05:27:11;166110.16;;;4.92;100.00
1776;BME280;885;42.626;23.200;2022-11-14T05:29:39;165754.84;;;4.97;100.00
1776;BME280;885;42.626;23.200;2022-11-14T05:32:06;165364.13;;;4.88;100.00
1776;BME280;885;42.626;23.200;2022-11-14T05:34:33;165722.06;;;4.84;100.00
1776;BME280;885;42.626;23.200;2022-11-14T05:37:00;164600.78;;;4.77;100.00
1776;BME280;885;42.626;23.200;2022-11-14T05:39:28;164190.09;;;4.61;100.00
1776;BME280;885;42.626;23.200;2022-11-14T05:41:55;163817.50;;;4.59;100.00
1776;BME280;885;42.626;23.200;2022-11-14T05:44:21;162733.59;;;4.66;100.00
1776;BME280;885;42.626;23.200;2022-11-14T05:46:50;163112.84;;;4.70;100.00
1776;BME280;885;42.626;23.200;2022-11-14T05:49:16;162386.56;;;4.73;100.00
1776;BME280;885;42.626;23.200;2022-11-14T05:51:43;162755.06;;;4.74;100.00
1776;BME280;885;42.626;23.200;2022-11-14T05:54:10;164190.09;;;4.61;100.00
1776;BME280;885;42.626;23.200;2022-11-14T05:56:37;163852.66;;;4.72;100.00
1776;BME280;885;42.626;23.200;2022-11-14T05:59:04;164184.69;;;4.59;100.00
1776;BME280;885;42.626;23.200;2022-11-14T06:01:30;164973.59;;;4.79;100.00
1776;BME280;885;42.626;23.200;2022-11-14T06:03:59;164630.63;;;4.89;100.00
1776;BME280;885;42.626;23.200;2022-11-14T06:06:25;164263.22;;;4.89;100.00
1776;BME280;885;42.626;23.200;2022-11-14T06:08:52;164264.59;;;4.89;100.00
1776;BME280;885;42.626;23.200;2022-11-14T06:11:20;164279.47;;;4.95;100.00
1776;BME280;885;42.626;23.200;2022-11-14T06:13:47;164240.19;;;4.80;100.00
1776;BME280;885;42.626;23.200;2022-11-14T06:16:16;165324.59;;;4.73;100.00
1776;BME280;885;42.626;23.200;2022-11-14T06:18:45;165369.63;;;4.90;100.00
1776;BME280;885;42.626;23.200;2022-11-14T06:21:14;165390.06;;;4.98;100.00
1776;BME280;885;42.626;23.200;2022-11-14T06:23:42;165376.41;;;4.93;100.00
1776;BME280;885;42.626;23.200;2022-11-14T06:26:14;165353.22;;;4.84;100.00
1776;BME280;885;42.626;23.200;2022-11-14T06:28:45;165417.34;;;5.08;100.00
1776;BME280;885;42.626;23.200;2022-11-14T06:31:14;165413.25;;;5.06;100.00
1776;BME280;885;42.626;23.200;2022-11-14T06:33:41;165411.88;;;5.06;100.00
1776;BME280;885;42.626;23.200;2022-11-14T06:36:08;165784.94;;;5.08;100.00
1776;BME280;885;42.626;23.200;2022-11-14T06:38:38;165757.63;;;4.98;100.00
1776;BME280;885;42.626;23.200;2022-11-14T06:41:06;165812.28;;;5.18;100.00
1776;BME280;885;42.626;23.200;2022-11-14T06:43:34;165458.25;;;5.23;100.00
1776;BME280;885;42.626;23.200;2022-11-14T06:46:02;165090.59;;;5.23;100.00
1776;BME280;885;42.626;23.200;2022-11-14T06:48:29;165102.84;;;5.27;100.00
1776;BME280;885;42.626;23.200;2022-11-14T06:50:57;165120.53;;;5.34;100.00
1776;BME280;885;42.626;23.200;2022-11-14T06:53:26;164779.97;;;5.44;100.00
1776;BME280;885;42.626;23.200;2022-11-14T06:55:59;164779.97;;;5.44;100.00
1776;BME280;885;42.626;23.200;2022-11-14T06:58:26;164790.84;;;5.48;100.00
1776;BME280;885;42.626;23.200;2022-11-14T07:00:53;166144.41;;;5.05;100.00
1776;BME280;885;42.626;23.200;2022-11-14T07:03:20;166583.59;;;5.30;100.00
1776;BME280;885;42.626;23.200;2022-11-14T07:05:47;166628.94;;;5.46;100.00
1776;BME280;885;42.626;23.200;2022-11-14T07:08:14;166645.25;;;5.53;100.00
1776;BME280;885;42.626;23.200;2022-11-14T07:10:41;166638.53;;;5.50;100.00
1776;BME280;885;42.626;23.200;2022-11-14T07:13:09;166653.63;;;5.55;100.00
1776;BME280;885;42.626;23.200;2022-11-14T07:15:36;166703.13;;;5.74;100.00
1776;BME280;885;42.626;23.200;2022-11-14T07:18:03;166686.63;;;5.68;100.00
1776;BME280;885;42.626;23.200;2022-11-14T07:20:30;166752.50;;;5.93;100.00
1776;BME280;885;42.626;23.200;2022-11-14T07:22:57;166745.63;;;5.90;100.00
1776;BME280;885;42.626;23.200;2022-11-14T07:25:24;166762.13;;;5.96;100.00
1776;BME280;885;42.626;23.200;2022-11-14T07:27:51;166387.00;;;5.94;100.00
1776;BME280;885;42.626;23.200;2022-11-14T07:30:19;166088.63;;;6.19;100.00
1776;BME280;885;42.626;23.200;2022-11-14T07:32:46;164997.31;;;6.24;100.00
1776;BME280;885;42.626;23.200;2022-11-14T07:35:13;163144.38;;;6.20;100.00
1776;BME280;885;42.626;23.200;2022-11-14T07:37:39;163449.19;;;5.96;100.00
1776;BME280;885;42.626;23.200;2022-11-14T07:40:07;164940.25;;;6.03;100.00
1776;BME280;885;42.626;23.200;2022-11-14T07:42:34;165508.66;;;6.77;100.00
1776;BME280;885;42.626;23.200;2022-11-14T07:45:01;164661.44;;;7.73;100.00
1776;BME280;885;42.626;23.200;2022-11-14T07:47:29;161928.84;;;8.56;100.00
1776;BME280;885;42.626;23.200;2022-11-14T07:49:56;156250.53;;;9.46;96.99
1776;BME280;885;42.626;23.200;2022-11-14T07:52:22;153488.28;;;10.23;93.22
1776;BME280;885;42.626;23.200;2022-11-14T07:54:50;151540.78;;;11.33;89.19
1776;BME280;885;42.626;23.200;2022-11-14T07:57:16;149320.56;;;12.86;83.18
1776;BME280;885;42.626;23.200;2022-11-14T07:59:43;143331.75;;;14.20;75.82
1776;BME280;885;42.626;23.200;2022-11-14T08:02:11;135057.13;;;15.36;65.65
1776;BME280;885;42.626;23.200;2022-11-14T08:04:40;132650.25;;;16.25;64.11
1776;BME280;885;42.626;23.200;2022-11-14T08:07:07;129740.78;;;18.33;55.87
1776;BME280;885;42.626;23.200;2022-11-14T08:09:34;126655.56;;;19.64;52.25
1776;BME280;885;42.626;23.200;2022-11-14T08:12:03;122733.03;;;20.54;49.27
1776;BME280;885;42.626;23.200;2022-11-14T08:14:30;121465.81;;;21.71;45.58
1776;BME280;885;42.626;23.200;2022-11-14T08:16:56;119356.22;;;22.40;44.56
1776;BME280;885;42.626;23.200;2022-11-14T08:19:23;115629.06;;;22.46;44.43
1776;BME280;885;42.626;23.200;2022-11-14T08:21:52;111774.88;;;22.18;44.66
1776;BME280;885;42.626;23.200;2022-11-14T08:24:18;104278.50;;;20.94;45.15
1776;BME280;885;42.626;23.200;2022-11-14T08:26:45;103022.44;;;20.61;46.71
1776;BME280;885;42.626;23.200;2022-11-14T08:29:12;101516.50;;;20.22;47.77
1776;BME280;885;42.626;23.200;2022-11-14T08:31:39;93106.88;;;17.36;53.90
1776;BME280;885;42.626;23.200;2022-11-14T08:34:06;90271.31;;;15.17;66.26
1776;BME280;885;42.626;23.200;2022-11-14T08:36:32;85979.25;;;12.60;71.89
1776;BME280;885;42.626;23.200;2022-11-14T08:39:01;88955.50;;;13.86;71.62
1776;BME280;885;42.626;23.200;2022-11-14T08:41:28;91168.13;;;14.88;68.56
1776;BME280;885;42.626;23.200;2022-11-14T08:43:54;91377.66;;;15.34;64.36
1776;BME280;885;42.626;23.200;2022-11-14T08:46:21;90974.63;;;15.31;63.42
1776;BME280;885;42.626;23.200;2022-11-14T08:48:48;91512.41;;;15.32;65.77
1776;BME280;885;42.626;23.200;2022-11-14T08:51:14;91149.06;;;15.03;67.62
1776;BME280;885;42.626;23.200;2022-11-14T08:53:41;91759.69;;;15.03;70.11
1776;BME280;885;42.626;23.200;2022-11-14T08:56:10;90763.06;;;14.70;68.59
1776;BME280;885;42.626;23.200;2022-11-14T08:58:36;89480.19;;;14.05;69.81
1776;BME280;885;42.626;23.200;2022-11-14T09:01:06;88695.75;;;13.56;72.17
1776;BME280;885;42.626;23.200;2022-11-14T09:03:33;86054.88;;;11.92;77.18
1776;BME280;885;42.626;23.200;2022-11-14T09:06:00;86295.59;;;11.62;81.04
1776;BME280;885;42.626;23.200;2022-11-14T09:08:28;87308.28;;;11.96;81.25
1776;BME280;885;42.626;23.200;2022-11-14T09:10:55;87890.44;;;12.23;80.38
1776;BME280;885;42.626;23.200;2022-11-14T09:13:26;87017.94;;;11.88;78.72
1776;BME280;885;42.626;23.200;2022-11-14T09:15:53;88102.81;;;12.26;80.12
1776;BME280;885;42.626;23.200;2022-11-14T09:18:20;89125.00;;;12.71;78.92
1776;BME280;885;42.626;23.200;2022-11-14T09:20:47;89847.53;;;13.16;76.49
1776;BME280;885;42.626;23.200;2022-11-14T09:23:14;90523.63;;;13.41;76.45
1776;BME280;885;42.626;23.200;2022-11-14T09:25:41;90406.69;;;13.59;73.74
1776;BME280;885;42.626;23.200;2022-11-14T09:28:08;90574.19;;;13.76;72.70
1776;BME280;885;42.626;23.200;2022-11-14T09:30:36;90849.88;;;13.95;71.05
1776;BME280;885;42.626;23.200;2022-11-14T09:33:05;89912.09;;;13.71;69.90
1776;BME280;885;42.626;23.200;2022-11-14T09:35:32;90153.88;;;13.92;68.75
1776;BME280;885;42.626;23.200;2022-11-14T09:38:01;90866.66;;;14.14;69.04
1776;BME280;885;42.626;23.200;2022-11-14T09:40:29;91229.28;;;14.36;68.54
1776;BME280;885;42.626;23.200;2022-11-14T09:43:09;90400.31;;;14.28;66.01
1776;BME280;885;42.626;23.200;2022-11-14T09:45:45;91425.28;;;14.58;67.21
1776;BME280;885;42.626;23.200;2022-11-14T09:48:17;91912.56;;;14.88;65.90
1776;BME280;885;42.626;23.200;2022-11-14T09:50:48;91776.81;;;15.01;64.16
1776;BME280;885;42.626;23.200;2022-11-14T09:53:22;91546.16;;;15.06;62.66
1776;BME280;885;42.626;23.200;2022-11-14T09:55:54;90940.16;;;14.81;63.14
1776;BME280;885;42.626;23.200;2022-11-14T09:58:21;91659.56;;;15.11;63.49
1776;BME280;885;42.626;23.200;2022-11-14T10:00:55;92178.91;;;15.41;61.63
1776;BME280;885;42.626;23.200;2022-11-14T10:03:32;91639.91;;;15.27;61.90
1776;BME280;885;42.626;23.200;2022-11-14T10:06:16;91345.72;;;15.16;62.13
1776;BME280;885;42.626;23.200;2022-11-14T10:09:19;92392.88;;;15.65;60.79
1776;BME280;885;42.626;23.200;2022-11-14T10:11:51;92923.19;;;15.80;61.51
1776;BME280;885;42.626;23.200;2022-11-14T10:14:48;92213.00;;;15.72;59.92
1776;BME280;885;42.626;23.200;2022-11-14T10:17:35;94882.94;;;16.69;58.87
1776;BME280;885;42.626;23.200;2022-11-14T10:20:13;95765.22;;;17.23;55.98
1776;BME280;885;42.626;23.200;2022-11-14T10:22:56;97055.00;;;17.85;53.71
1776;BME280;885;42.626;23.200;2022-11-14T10:25:33;98238.41;;;18.50;50.96
1776;BME280;885;42.626;23.200;2022-11-14T10:28:17;97167.22;;;18.37;50.15
1776;BME280;885;42.626;23.200;2022-11-14T10:30:52;100111.38;;;19.40;48.19
1776;BME280;885;42.626;23.200;2022-11-14T10:33:35;105566.69;;;21.14;44.45
1776;BME280;885;42.626;23.200;2022-11-14T10:36:12;106685.47;;;21.88;42.26
1776;BME280;885;42.626;23.200;2022-11-14T10:38:43;102698.13;;;21.11;43.10
1776;BME280;885;42.626;23.200;2022-11-14T10:41:12;112998.03;;;23.85;39.33
1776;BME280;885;42.626;23.200;2022-11-14T10:43:42;112789.63;;;24.94;35.68
1776;BME280;885;42.626;23.200;2022-11-14T10:46:12;105432.94;;;23.61;37.51
1776;BME280;885;42.626;23.200;2022-11-14T10:48:43;106400.97;;;24.25;36.85
1776;BME280;885;42.626;23.200;2022-11-14T10:51:17;100937.34;;;22.90;38.76
1776;BME280;885;42.626;23.200;2022-11-14T10:53:50;114663.50;;;26.60;34.74
1776;BME280;885;42.626;23.200;2022-11-14T10:56:17;118209.91;;;28.41;31.72
1776;BME280;885;42.626;23.200;2022-11-14T10:58:44;122323.25;;;30.47;29.26
1776;BME280;885;42.626;23.200;2022-11-14T11:01:33;124200.06;;;32.63;26.69
1776;BME280;885;42.626;23.200;2022-11-14T11:04:13;122742.28;;;33.80;25.95
1776;BME280;885;42.626;23.200;2022-11-14T11:06:43;122630.13;;;34.70;24.85
1776;BME280;885;42.626;23.200;2022-11-14T11:09:13;120517.72;;;34.95;24.33
1776;BME280;885;42.626;23.200;2022-11-14T11:11:59;118765.22;;;35.23;23.50
1776;BME280;885;42.626;23.200;2022-11-14T11:14:27;117196.28;;;35.09;23.96
1776;BME280;885;42.626;23.200;2022-11-14T11:17:18;116720.72;;;35.29;23.62
1776;BME280;885;42.626;23.200;2022-11-14T11:19:47;117337.06;;;35.63;23.76
1776;BME280;885;42.626;23.200;2022-11-14T11:22:27;115654.97;;;35.54;23.00
1776;BME280;885;42.626;23.200;2022-11-14T11:24:55;116318.25;;;35.76;23.52
1776;BME280;885;42.626;23.200;2022-11-14T11:27:24;116960.03;;;36.21;23.25
1776;BME280;885;42.626;23.200;2022-11-14T11:30:04;117188.41;;;36.38;23.13
1776;BME280;885;42.626;23.200;2022-11-14T11:32:32;117827.06;;;36.70;22.55
1776;BME280;885;42.626;23.200;2022-11-14T11:35:02;119112.22;;;37.02;23.51
1776;BME280;885;42.626;23.200;2022-11-14T11:37:37;118549.78;;;37.21;22.76
1776;BME280;885;42.626;23.200;2022-11-14T11:40:13;114054.88;;;36.28;22.61
1776;BME280;885;42.626;23.200;2022-11-14T11:42:44;113841.84;;;36.14;23.18
1776;BME280;885;42.626;23.200;2022-11-14T11:45:14;113472.09;;;36.19;22.73
1776;BME280;885;42.626;23.200;2022-11-14T11:47:50;114792.81;;;36.60;23.03
1776;BME280;885;42.626;23.200;2022-11-14T11:50:21;114273.56;;;36.65;22.62
1776;BME280;885;42.626;23.200;2022-11-14T11:53:00;114565.50;;;36.90;21.98
1776;BME280;885;42.626;23.200;2022-11-14T11:55:32;115974.69;;;37.22;21.92
1776;BME280;885;42.626;23.200;2022-11-14T11:58:05;116496.00;;;37.46;22.22
1776;BME280;885;42.626;23.200;2022-11-14T12:00:36;113917.91;;;36.98;21.67
1776;BME280;885;42.626;23.200;2022-11-14T12:03:04;113864.13;;;36.93;22.66
1776;BME280;885;42.626;23.200;2022-11-14T12:05:43;113132.16;;;36.91;21.83
1776;BME280;885;42.626;23.200;2022-11-14T12:08:17;112531.50;;;36.67;22.76
1776;BME280;885;42.626;23.200;2022-11-14T12:10:48;112765.28;;;36.95;21.80
1776;BME280;885;42.626;23.200;2022-11-14T12:13:44;109192.34;;;35.85;22.69
1776;BME280;885;42.626;23.200;2022-11-14T12:16:27;98914.88;;;31.97;25.95
1776;BME280;885;42.626;23.200;2022-11-14T12:19:22;90911.44;;;27.84;29.21
1776;BME280;885;42.626;23.200;2022-11-14T12:22:11;93364.31;;;29.21;28.46
1776;BME280;885;42.626;23.200;2022-11-14T12:25:07;95331.41;;;30.33;27.23
1776;BME280;885;42.626;23.200;2022-11-14T12:27:57;89668.31;;;27.05;29.78
1776;BME280;885;42.626;23.200;2022-11-14T12:30:29;89740.34;;;27.11;29.95
1776;BME280;885;42.626;23.200;2022-11-14T12:32:59;88885.88;;;26.36;31.63
1776;BME280;885;42.626;23.200;2022-11-14T12:35:30;90723.50;;;27.61;30.84
1776;BME280;885;42.626;23.200;2022-11-14T12:38:00;94130.13;;;29.68;28.54
1776;BME280;885;42.626;23.200;2022-11-14T12:40:30;95926.09;;;30.67;26.87
1776;BME280;885;42.626;23.200;2022-11-14T12:42:59;93065.75;;;29.11;28.71
1776;BME280;885;42.626;23.200;2022-11-14T12:45:56;95917.06;;;30.61;27.74
1776;BME280;885;42.626;23.200;2022-11-14T12:48:32;96889.50;;;31.12;27.22
1776;BME280;885;42.626;23.200;2022-11-14T12:51:00;96427.84;;;30.97;26.33
1776;BME280;885;42.626;23.200;2022-11-14T12:53:41;91633.28;;;28.33;29.11
1776;BME280;885;42.626;23.200;2022-11-14T12:56:23;92037.09;;;28.59;29.32
1776;BME280;885;42.626;23.200;2022-11-14T12:59:32;94265.59;;;29.91;27.82
1776;BME280;885;42.626;23.200;2022-11-14T13:02:45;96503.22;;;31.04;26.97
1776;BME280;885;42.626;23.200;2022-11-14T13:05:42;93959.28;;;29.90;27.33
1776;BME280;885;42.626;23.200;2022-11-14T13:08:26;91798.28;;;28.56;28.95
1776;BME280;885;42.626;23.200;2022-11-14T13:11:33;88337.91;;;26.18;32.12
1776;BME280;885;42.626;23.200;2022-11-14T13:14:15;90715.47;;;27.82;30.21
1776;BME280;885;42.626;23.200;2022-11-14T13:17:08;90655.31;;;27.87;30.25
1776;BME280;885;42.626;23.200;2022-11-14T13:19:53;89448.38;;;27.07;30.73
1776;BME280;885;42.626;23.200;2022-11-14T13:22:44;88814.16;;;26.52;31.73
1776;BME280;885;42.626;23.200;2022-11-14T13:25:16;89760.06;;;27.27;31.08
1776;BME280;885;42.626;23.200;2022-11-14T13:27:46;90148.94;;;27.58;30.10